Time;durP1;ratioP1;P1;durP2;ratioP2;P2;SDS_P1;SDS_P2;PMS_P1;PMS_P2;Temp;Humidity;BMP_temperature;BMP_pressure;BME280_temperature;BME280_humidity;BME280_pressure;Samples;Min_cycle;Max_cycle;Signal;HPM_P1;HPM_P2
2023/03/13 00:02:30;;;;;;;6.65;2.83;;;;;;;10.37;74.51;99872.53;5133158;28;20034;-81
2023/03/13 00:05:00;;;;;;;7.78;1.85;;;;;;;10.37;74.95;99864.66;5150625;28;20043;-79
2023/03/13 00:07:31;;;;;;;0.20;0.20;;;;;;;10.39;74.73;99864.63;5133369;28;20497;-80
2023/03/13 00:10:01;;;;;;;1.75;0.65;;;;;;;10.41;74.69;99851.44;5174464;28;20049;-80
2023/03/13 00:12:31;;;;;;;0.20;0.20;;;;;;;10.41;74.26;99836.56;5143831;28;20021;-80
2023/03/13 00:15:02;;;;;;;0.50;0.50;;;;;;;10.47;74.25;99838.94;5130473;28;20064;-80
2023/03/13 00:17:32;;;;;;;0.75;0.75;;;;;;;10.47;74.75;99830.19;5150224;28;20388;-81
2023/03/13 00:20:03;;;;;;;0.80;0.80;;;;;;;10.55;74.46;99830.72;5139694;28;20042;-81
2023/03/13 00:22:34;;;;;;;0.40;0.40;;;;;;;10.51;74.68;99830.00;5133641;28;20061;-80
2023/03/13 00:25:05;;;;;;;2.40;1.23;;;;;;;10.51;75.24;99826.53;5128787;28;20526;-80
2023/03/13 00:27:35;;;;;;;0.38;0.38;;;;;;;10.54;75.02;99816.78;5147268;28;20027;-80
2023/03/13 00:30:06;;;;;;;0.55;0.55;;;;;;;10.55;75.29;99812.38;5152531;28;20163;-80
2023/03/13 00:32:41;;;;;;;1.08;1.00;;;;;;;10.57;75.68;99800.06;5148227;28;20694;-81
2023/03/13 00:35:13;;;;;;;0.98;0.80;;;;;;;10.59;76.56;99803.47;5132569;28;20097;-81
2023/03/13 00:37:43;;;;;;;0.85;0.82;;;;;;;10.58;76.47;99795.69;5153154;28;20030;-80
2023/03/13 00:40:14;;;;;;;2.53;1.15;;;;;;;10.59;77.15;99798.22;5136338;28;20090;-81
2023/03/13 00:42:44;;;;;;;1.02;0.47;;;;;;;10.59;77.05;99782.47;5164422;28;20087;-80
2023/03/13 00:45:15;;;;;;;0.40;0.40;;;;;;;10.63;76.98;99784.03;5161671;28;20117;-81
2023/03/13 00:47:45;;;;;;;0.30;0.30;;;;;;;10.67;77.08;99780.38;5149271;28;20448;-81
2023/03/13 00:50:16;;;;;;;0.52;0.52;;;;;;;10.68;76.99;99771.59;5138148;28;20046;-79
2023/03/13 00:52:46;;;;;;;0.30;0.30;;;;;;;10.69;77.62;99775.94;5157209;28;20371;-80
2023/03/13 00:55:16;;;;;;;0.60;0.60;;;;;;;10.68;77.12;99771.59;5130742;28;20045;-81
2023/03/13 00:57:47;;;;;;;0.25;0.25;;;;;;;10.73;77.19;99766.16;5130188;28;20030;-80
2023/03/13 01:00:18;;;;;;;0.80;0.52;;;;;;;10.70;77.35;99764.50;5148874;28;20037;-80
2023/03/13 01:02:48;;;;;;;1.08;0.60;;;;;;;10.74;77.30;99751.25;5153822;28;20532;-80
2023/03/13 01:05:19;;;;;;;0.30;0.30;;;;;;;10.76;77.31;99746.81;5130917;28;20041;-80
2023/03/13 01:07:49;;;;;;;0.52;0.52;;;;;;;10.74;77.66;99738.13;5133794;28;20031;-80
2023/03/13 01:10:20;;;;;;;0.22;0.22;;;;;;;10.79;77.68;99737.03;5135178;28;20076;-80
2023/03/13 01:12:50;;;;;;;8.48;1.80;;;;;;;10.78;77.96;99735.31;5152927;28;20098;-80
2023/03/13 01:15:21;;;;;;;0.60;0.60;;;;;;;10.79;77.82;99726.53;5130210;28;20047;-79
2023/03/13 01:17:51;;;;;;;0.65;0.65;;;;;;;10.79;77.97;99730.91;5136649;28;20033;-80
2023/03/13 01:20:22;;;;;;;2.67;1.02;;;;;;;10.81;78.10;99731.69;5163847;28;20031;-80
2023/03/13 01:22:52;;;;;;;0.90;0.90;;;;;;;10.82;78.38;99720.28;5156656;28;20056;-81
2023/03/13 01:25:23;;;;;;;0.45;0.45;;;;;;;10.79;78.47;99720.41;5155181;28;20038;-80
2023/03/13 01:27:53;;;;;;;0.30;0.30;;;;;;;10.85;78.46;99714.91;5165908;28;20062;-81
2023/03/13 01:30:23;;;;;;;0.88;0.88;;;;;;;10.83;78.33;99720.22;5161988;28;20035;-81
2023/03/13 01:32:54;;;;;;;0.30;0.30;;;;;;;10.87;79.44;99710.44;5146432;28;20101;-82
2023/03/13 01:35:24;;;;;;;0.20;0.20;;;;;;;10.86;79.84;99699.09;5149701;28;20131;-80
2023/03/13 01:37:55;;;;;;;0.20;0.20;;;;;;;10.84;80.27;99702.72;5135884;28;20030;-80
2023/03/13 01:40:25;;;;;;;0.57;0.57;;;;;;;10.85;80.91;99699.19;5157170;28;20027;-80
2023/03/13 01:42:58;;;;;;;0.30;0.30;;;;;;;10.84;81.02;99697.47;5138580;28;20030;-80
2023/03/13 01:46:17;;;;;;;0.30;0.30;;;;;;;10.88;81.29;99699.00;5181086;28;20039;-81
2023/03/13 01:49:08;;;;;;;0.57;0.57;;;;;;;10.88;81.68;99683.28;5156674;28;20107;-80
2023/03/13 01:51:40;;;;;;;0.30;0.30;;;;;;;10.89;82.48;99679.72;5161217;28;20039;-81
2023/03/13 01:54:20;;;;;;;0.50;0.50;;;;;;;10.85;83.66;99671.16;5158904;28;20117;-80
2023/03/13 01:56:54;;;;;;;0.85;0.85;;;;;;;10.94;83.53;99661.16;5148684;28;20047;-81
2023/03/13 01:59:27;;;;;;;;;;;;;;;10.93;83.81;99644.56;5149901;28;20090;-79
2023/03/13 02:02:00;;;;;;;0.22;0.22;;;;;;;10.91;84.39;99643.78;5136254;28;20025;-81
2023/03/13 02:04:35;;;;;;;;;;;;;;;10.91;84.38;99640.31;5134799;28;20514;-81
2023/03/13 02:07:11;;;;;;;0.25;0.25;;;;;;;10.88;84.84;99625.53;5146359;28;19957;-81
2023/03/13 02:09:47;;;;;;;0.30;0.30;;;;;;;10.90;84.55;99622.88;5161826;28;20077;-80
2023/03/13 02:12:24;;;;;;;0.40;0.40;;;;;;;10.86;85.63;99622.16;5151365;28;20030;-80
2023/03/13 02:14:58;;;;;;;1.20;0.28;;;;;;;10.85;85.80;99615.19;5148957;28;20078;-81
2023/03/13 02:17:29;;;;;;;0.50;0.50;;;;;;;10.89;85.45;99608.88;5163950;28;20026;-81
2023/03/13 02:20:00;;;;;;;0.20;0.20;;;;;;;10.88;86.25;99604.53;5161224;28;20034;-81
2023/03/13 02:22:41;;;;;;;0.70;0.70;;;;;;;10.86;86.61;99607.25;5150875;28;20622;-81
2023/03/13 02:25:24;;;;;;;0.20;0.20;;;;;;;10.86;87.27;99606.41;5147275;28;20050;-80
2023/03/13 02:28:03;;;;;;;0.20;0.20;;;;;;;10.92;87.13;99602.63;5132564;28;20031;-81
2023/03/13 02:30:34;;;;;;;0.20;0.20;;;;;;;10.86;88.63;99590.66;5152729;28;20854;-80
2023/03/13 02:33:05;;;;;;;0.40;0.40;;;;;;;10.83;89.24;99596.03;5167267;28;20034;-80
2023/03/13 02:35:35;;;;;;;1.48;1.40;;;;;;;10.91;88.10;99582.59;5163895;28;20035;-81
2023/03/13 02:38:09;;;;;;;2.28;1.20;;;;;;;10.90;88.73;99589.59;5147880;28;20062;-81
2023/03/13 02:40:43;;;;;;;0.20;0.20;;;;;;;10.86;89.49;99595.91;5140185;28;20043;-82
2023/03/13 02:43:23;;;;;;;0.20;0.20;;;;;;;10.79;89.77;99583.97;5162888;28;20033;-82
2023/03/13 02:46:13;;;;;;;0.80;0.80;;;;;;;10.80;90.33;99576.06;5172214;28;20088;-81
2023/03/13 02:48:49;;;;;;;0.20;0.20;;;;;;;10.82;89.41;99568.97;5155494;28;20052;-80
2023/03/13 02:51:26;;;;;;;0.20;0.20;;;;;;;10.81;89.53;99555.91;5131633;28;20066;-81
2023/03/13 02:54:00;;;;;;;1.58;1.13;;;;;;;10.83;89.94;99554.06;5147911;28;20096;-80
2023/03/13 02:56:35;;;;;;;0.20;0.20;;;;;;;10.82;89.57;99541.84;5168677;28;20072;-81
2023/03/13 02:59:06;;;;;;;0.20;0.20;;;;;;;10.81;89.40;99530.53;5150904;28;20027;-80
2023/03/13 03:01:36;;;;;;;0.30;0.30;;;;;;;10.86;88.79;99527.69;5133808;28;20051;-80
2023/03/13 03:04:07;;;;;;;0.30;0.30;;;;;;;10.78;90.12;99524.56;5130533;28;20031;-81
2023/03/13 03:06:37;;;;;;;0.52;0.52;;;;;;;10.80;89.87;99509.59;5134544;28;20043;-82
2023/03/13 03:09:08;;;;;;;0.20;0.20;;;;;;;10.81;90.05;99520.03;5133805;28;20031;-82
2023/03/13 03:11:38;;;;;;;0.20;0.20;;;;;;;10.81;90.03;99517.41;5162467;28;20035;-81
2023/03/13 03:14:12;;;;;;;0.20;0.20;;;;;;;10.80;90.04;99522.72;5132275;28;20049;-81
2023/03/13 03:16:42;;;;;;;0.20;0.20;;;;;;;10.77;90.73;99520.25;5166860;28;20035;-80
2023/03/13 03:19:13;;;;;;;0.20;0.20;;;;;;;10.84;90.15;99519.03;5138925;28;20089;-81
2023/03/13 03:21:44;;;;;;;0.40;0.40;;;;;;;10.83;90.23;99528.66;5162980;28;20035;-80
2023/03/13 03:24:14;;;;;;;0.20;0.20;;;;;;;10.89;89.25;99526.69;5134443;28;20022;-80
2023/03/13 03:26:45;;;;;;;0.20;0.20;;;;;;;10.94;88.54;99522.94;5140761;28;20133;-80
2023/03/13 03:29:16;;;;;;;0.20;0.20;;;;;;;10.90;89.51;99513.47;5159290;28;20058;-80
2023/03/13 03:31:46;;;;;;;0.20;0.20;;;;;;;10.87;90.11;99513.63;5160770;28;20085;-80
2023/03/13 03:34:17;;;;;;;0.20;0.20;;;;;;;10.88;89.95;99515.31;5134776;28;20026;-79
2023/03/13 03:36:47;;;;;;;0.20;0.20;;;;;;;10.90;90.21;99516.09;5176559;28;20093;-79
2023/03/13 03:39:18;;;;;;;0.20;0.20;;;;;;;10.85;90.53;99512.88;5156603;28;20045;-80
2023/03/13 03:41:48;;;;;;;0.45;0.45;;;;;;;10.89;90.45;99509.16;5162175;28;20401;-81
2023/03/13 03:44:19;;;;;;;0.20;0.20;;;;;;;10.94;90.83;99503.69;5160356;28;20035;-79
2023/03/13 03:46:49;;;;;;;0.55;0.55;;;;;;;10.92;90.47;99506.41;5144319;28;20050;-79
2023/03/13 03:49:20;;;;;;;0.20;0.20;;;;;;;10.96;89.90;99497.44;5128708;28;20404;-80
2023/03/13 03:51:50;;;;;;;0.22;0.22;;;;;;;10.96;91.05;99501.84;5148657;28;20042;-79
2023/03/13 03:54:21;;;;;;;0.20;0.20;;;;;;;11.00;90.40;99513.88;5143408;28;20035;-79
2023/03/13 03:56:51;;;;;;;6.28;0.95;;;;;;;11.00;90.79;99509.50;5129335;28;20042;-79
2023/03/13 03:59:21;;;;;;;0.20;0.20;;;;;;;11.05;90.64;99511.03;5147245;28;20691;-79
2023/03/13 04:01:52;;;;;;;0.20;0.20;;;;;;;11.05;91.18;99505.78;5125089;28;20039;-78
2023/03/13 04:04:22;;;;;;;0.20;0.20;;;;;;;11.10;91.13;99503.81;5157115;28;20030;-79
2023/03/13 04:06:53;;;;;;;0.30;0.30;;;;;;;11.10;91.43;99509.91;5132678;28;20030;-80
2023/03/13 04:09:23;;;;;;;0.20;0.20;;;;;;;11.13;90.74;99499.25;5146367;28;20041;-79
2023/03/13 04:11:57;;;;;;;0.30;0.30;;;;;;;11.14;90.37;99485.22;5143521;28;20038;-79
2023/03/13 04:14:27;;;;;;;0.20;0.20;;;;;;;11.21;90.56;99485.75;5142641;28;20053;-80
2023/03/13 04:16:58;;;;;;;0.30;0.30;;;;;;;11.17;90.87;99478.94;5146978;28;20120;-81
2023/03/13 04:19:28;;;;;;;0.20;0.20;;;;;;;11.19;90.77;99487.63;5135710;28;20039;-80
2023/03/13 04:21:59;;;;;;;0.20;0.20;;;;;;;11.18;91.59;99497.25;5149118;28;20117;-80
2023/03/13 04:24:29;;;;;;;0.20;0.20;;;;;;;11.22;91.00;99491.84;5130175;28;20109;-80
2023/03/13 04:27:02;;;;;;;0.30;0.30;;;;;;;11.28;91.46;99483.66;5145040;28;20042;-80
2023/03/13 04:29:33;;;;;;;0.20;0.20;;;;;;;11.28;91.08;99481.03;5134393;28;20022;-80
2023/03/13 04:32:03;;;;;;;0.20;0.20;;;;;;;11.37;90.64;99488.47;5143281;28;20034;-80
2023/03/13 04:34:34;;;;;;;0.45;0.45;;;;;;;11.36;90.97;99485.91;5142759;28;20030;-79
2023/03/13 04:37:04;;;;;;;0.20;0.20;;;;;;;11.37;90.86;99488.47;5129447;28;20035;-80
2023/03/13 04:39:35;;;;;;;0.20;0.20;;;;;;;11.42;90.85;99478.56;5147146;28;20113;-80
2023/03/13 04:42:05;;;;;;;0.30;0.30;;;;;;;11.50;90.08;99480.81;5146998;28;20019;-80
2023/03/13 04:44:36;;;;;;;0.28;0.28;;;;;;;11.49;90.83;99479.13;5146029;28;20097;-80
2023/03/13 04:47:06;;;;;;;0.20;0.20;;;;;;;11.50;90.42;99481.66;5131212;28;20027;-81
2023/03/13 04:49:37;;;;;;;0.30;0.30;;;;;;;11.54;90.45;99476.25;5157745;28;21250;-80
2023/03/13 04:52:08;;;;;;;0.20;0.20;;;;;;;11.62;90.08;99467.03;5132714;28;20039;-79
2023/03/13 04:54:38;;;;;;;0.20;0.20;;;;;;;11.67;89.88;99481.72;5143770;28;20030;-80
2023/03/13 04:57:08;;;;;;;0.20;0.20;;;;;;;11.69;89.85;99479.88;5148894;28;20043;-80
2023/03/13 04:59:39;;;;;;;0.20;0.20;;;;;;;11.71;90.19;99470.97;5126453;28;20512;-80
2023/03/13 05:02:11;;;;;;;0.20;0.20;;;;;;;11.71;90.31;99463.09;5142984;28;20062;-80
2023/03/13 05:04:42;;;;;;;0.22;0.22;;;;;;;11.73;89.83;99457.75;5147922;28;20046;-80
2023/03/13 05:07:12;;;;;;;0.30;0.30;;;;;;;11.75;89.59;99455.91;5143040;28;20031;-80
2023/03/13 05:09:43;;;;;;;0.47;0.47;;;;;;;11.77;89.10;99457.53;5154189;28;20042;-80
2023/03/13 05:12:13;;;;;;;0.43;0.43;;;;;;;11.80;89.45;99438.09;5140232;28;20109;-81
2023/03/13 05:14:43;;;;;;;0.30;0.30;;;;;;;11.81;89.47;99434.56;5160140;28;20035;-80
2023/03/13 05:17:14;;;;;;;0.77;0.77;;;;;;;11.80;89.58;99435.47;5142541;28;20085;-81
2023/03/13 05:19:44;;;;;;;0.20;0.20;;;;;;;11.82;89.38;99431.00;5132552;28;20081;-77
2023/03/13 05:22:15;;;;;;;0.20;0.20;;;;;;;11.82;89.18;99428.38;5146842;28;20038;-79
2023/03/13 05:24:45;;;;;;;0.30;0.30;;;;;;;11.83;89.36;99430.06;5139519;28;20030;-79
2023/03/13 05:27:16;;;;;;;0.40;0.40;;;;;;;11.82;89.25;99426.56;5147754;28;20034;-79
2023/03/13 05:29:46;;;;;;;0.60;0.60;;;;;;;11.90;88.43;99425.34;5172888;28;20046;-79
2023/03/13 05:32:16;;;;;;;0.30;0.30;;;;;;;11.88;89.10;99414.06;5149763;28;20027;-79
2023/03/13 05:34:47;;;;;;;1.05;0.88;;;;;;;11.91;88.61;99406.84;5129768;28;20038;-79
2023/03/13 05:37:17;;;;;;;0.25;0.25;;;;;;;11.93;88.36;99414.66;5141451;28;20031;-79
2023/03/13 05:39:48;;;;;;;0.20;0.20;;;;;;;12.00;88.12;99415.22;5149954;28;20058;-80
2023/03/13 05:42:18;;;;;;;0.20;0.20;;;;;;;11.96;87.75;99428.47;5161214;28;20031;-77
2023/03/13 05:44:48;;;;;;;0.20;0.20;;;;;;;11.96;88.36;99433.72;5148453;28;20054;-79
2023/03/13 05:47:19;;;;;;;0.47;0.47;;;;;;;11.98;87.96;99438.97;5142230;28;20548;-78
2023/03/13 05:49:49;;;;;;;0.30;0.30;;;;;;;12.01;87.47;99432.69;5137960;28;20056;-79
2023/03/13 05:52:20;;;;;;;0.20;0.20;;;;;;;12.01;87.71;99424.81;5159404;28;20030;-79
2023/03/13 05:54:50;;;;;;;0.88;0.43;;;;;;;11.98;87.81;99432.84;5147559;28;20043;-79
2023/03/13 05:57:21;;;;;;;2.53;2.33;;;;;;;12.01;87.71;99438.78;5126290;28;20825;-79
2023/03/13 05:59:51;;;;;;;0.20;0.20;;;;;;;12.04;87.65;99443.88;5159275;28;20046;-79
2023/03/13 06:02:22;;;;;;;0.40;0.40;;;;;;;12.02;87.59;99435.22;5128135;28;20027;-79
2023/03/13 06:04:52;;;;;;;0.40;0.40;;;;;;;12.04;87.45;99445.66;5159972;28;20046;-77
2023/03/13 06:07:22;;;;;;;1.20;0.65;;;;;;;12.06;87.21;99446.41;5127118;28;20452;-80
2023/03/13 06:09:53;;;;;;;0.60;0.60;;;;;;;12.06;87.60;99443.78;5131510;28;20058;-79
2023/03/13 06:12:23;;;;;;;0.30;0.30;;;;;;;12.09;87.06;99446.28;5165679;28;20095;-79
2023/03/13 06:14:54;;;;;;;0.63;0.47;;;;;;;12.12;86.33;99453.97;5142187;28;20053;-78
2023/03/13 06:17:24;;;;;;;0.20;0.20;;;;;;;12.15;86.10;99442.47;5134036;28;20031;-79
2023/03/13 06:19:55;;;;;;;0.20;0.20;;;;;;;12.14;86.39;99454.75;5147353;28;20119;-79
2023/03/13 06:22:25;;;;;;;0.20;0.20;;;;;;;12.20;85.55;99448.31;5138744;28;20130;-79
2023/03/13 06:24:56;;;;;;;0.20;0.20;;;;;;;12.19;85.82;99438.72;5133483;28;20051;-79
2023/03/13 06:27:26;;;;;;;0.20;0.20;;;;;;;12.19;85.84;99433.47;5155854;28;20165;-79
2023/03/13 06:29:57;;;;;;;0.50;0.50;;;;;;;12.23;85.54;99435.00;5140131;28;20049;-79
2023/03/13 06:32:27;;;;;;;0.20;0.20;;;;;;;12.25;85.00;99444.50;5142774;28;20109;-79
2023/03/13 06:34:58;;;;;;;0.20;0.20;;;;;;;12.31;84.64;99442.47;5128685;28;20104;-79
2023/03/13 06:37:28;;;;;;;0.20;0.20;;;;;;;12.30;84.55;99456.53;5156352;28;20050;-78
2023/03/13 06:39:58;;;;;;;0.73;0.73;;;;;;;12.32;84.46;99465.19;5124008;28;20125;-78
2023/03/13 06:42:29;;;;;;;0.43;0.43;;;;;;;12.37;84.04;99460.53;5136015;28;20561;-78
2023/03/13 06:44:59;;;;;;;1.08;0.63;;;;;;;12.35;83.77;99470.31;5139277;28;20043;-79
2023/03/13 06:47:31;;;;;;;0.20;0.20;;;;;;;12.36;83.83;99454.44;5139910;28;20110;-78
2023/03/13 06:50:01;;;;;;;0.43;0.43;;;;;;;12.40;83.53;99470.91;5126126;28;20536;-78
2023/03/13 06:52:32;;;;;;;1.45;1.17;;;;;;;12.43;82.99;99468.09;5154784;28;20039;-78
2023/03/13 06:55:03;;;;;;;0.30;0.30;;;;;;;12.44;83.18;99456.63;5143114;28;20556;-78
2023/03/13 06:57:34;;;;;;;0.20;0.20;;;;;;;12.41;83.33;99460.28;5128228;28;20090;-79
2023/03/13 07:00:06;;;;;;;0.65;0.65;;;;;;;12.43;83.10;99458.41;5140037;28;20038;-79
2023/03/13 07:02:36;;;;;;;6.13;2.08;;;;;;;12.43;83.18;99444.44;5136788;28;20062;-80
2023/03/13 07:05:07;;;;;;;0.47;0.47;;;;;;;12.44;82.67;99451.38;5128307;28;20082;-80
2023/03/13 07:07:38;;;;;;;0.30;0.30;;;;;;;12.50;81.98;99440.53;5146344;28;20039;-79
2023/03/13 07:10:09;;;;;;;0.70;0.70;;;;;;;12.50;82.00;99437.91;5146148;28;20105;-80
2023/03/13 07:12:40;;;;;;;0.20;0.20;;;;;;;12.54;80.99;99439.41;5123020;28;20034;-81
2023/03/13 07:15:10;;;;;;;0.38;0.38;;;;;;;12.54;81.36;99442.03;5126400;28;20049;-81
2023/03/13 07:17:41;;;;;;;1.50;0.25;;;;;;;12.53;81.17;99445.59;5142244;28;20034;-80
2023/03/13 07:20:11;;;;;;;0.55;0.55;;;;;;;12.52;81.12;99433.38;5148621;28;20046;-81
2023/03/13 07:22:50;;;;;;;0.30;0.30;;;;;;;12.53;80.75;99427.19;5140541;28;20022;-81
2023/03/13 07:25:20;;;;;;;0.45;0.45;;;;;;;12.58;80.23;99426.94;5146578;28;20057;-79
2023/03/13 07:27:52;;;;;;;0.60;0.60;;;;;;;12.59;79.85;99413.69;5149259;28;20516;-80
2023/03/13 07:30:22;;;;;;;0.20;0.20;;;;;;;12.68;79.05;99417.59;5154642;28;20051;-80
2023/03/13 07:32:53;;;;;;;0.20;0.20;;;;;;;12.64;79.62;99412.59;5162428;28;20030;-80
2023/03/13 07:35:23;;;;;;;0.20;0.20;;;;;;;12.70;78.54;99415.72;5157795;28;20030;-79
2023/03/13 07:37:53;;;;;;;0.50;0.50;;;;;;;12.70;78.67;99405.19;5144857;28;20089;-80
2023/03/13 07:40:24;;;;;;;0.60;0.60;;;;;;;12.73;78.35;99405.00;5158523;28;20445;-81
2023/03/13 07:42:54;;;;;;;0.40;0.40;;;;;;;12.74;78.20;99409.34;5146240;28;20053;-81
2023/03/13 07:45:25;;;;;;;0.20;0.20;;;;;;;12.74;78.48;99409.34;5125389;28;20047;-80
2023/03/13 07:47:55;;;;;;;0.20;0.20;;;;;;;12.76;78.09;99404.00;5155261;28;20017;-80
2023/03/13 07:50:26;;;;;;;10.95;0.68;;;;;;;12.77;77.91;99408.31;5160357;28;20045;-80
2023/03/13 07:52:56;;;;;;;0.90;0.32;;;;;;;12.81;77.34;99394.03;5143507;28;20129;-80
2023/03/13 07:55:27;;;;;;;9.85;2.15;;;;;;;12.81;76.92;99390.59;5160285;28;20686;-80
2023/03/13 07:57:57;;;;;;;0.50;0.50;;;;;;;12.81;76.78;99399.31;5145856;28;20022;-79
2023/03/13 08:00:27;;;;;;;0.20;0.20;;;;;;;12.85;76.48;99395.53;5138826;28;20129;-80
2023/03/13 08:02:58;;;;;;;0.40;0.40;;;;;;;12.87;76.63;99400.75;5155623;28;20048;-80
2023/03/13 08:05:28;;;;;;;9.95;1.70;;;;;;;12.85;76.92;99392.91;5143365;28;20039;-79
2023/03/13 08:07:59;;;;;;;0.52;0.52;;;;;;;12.89;77.05;99397.09;5119334;28;20038;-79
2023/03/13 08:10:30;;;;;;;0.20;0.20;;;;;;;12.86;77.01;99399.88;5154512;28;20038;-80
2023/03/13 08:13:00;;;;;;;0.55;0.55;;;;;;;12.91;76.66;99386.44;5140897;28;20038;-80
2023/03/13 08:15:31;;;;;;;0.30;0.30;;;;;;;12.90;76.28;99398.78;5124538;28;20614;-80
2023/03/13 08:18:01;;;;;;;2.28;1.48;;;;;;;12.94;76.58;99395.94;5143359;28;20030;-79
2023/03/13 08:20:32;;;;;;;1.92;1.65;;;;;;;12.93;76.91;99407.44;5122645;28;20566;-78
2023/03/13 08:23:02;;;;;;;0.20;0.20;;;;;;;12.94;77.18;99395.94;5144118;28;20219;-79
2023/03/13 08:25:33;;;;;;;1.48;1.15;;;;;;;13.00;77.11;99399.09;5121007;28;20795;-78
2023/03/13 08:28:03;;;;;;;8.02;2.60;;;;;;;13.02;77.02;99402.47;5138372;28;20035;-78
2023/03/13 08:30:33;;;;;;;0.20;0.20;;;;;;;13.05;77.36;99399.69;5140025;28;20038;-79
2023/03/13 08:33:04;;;;;;;1.50;1.05;;;;;;;13.06;77.08;99397.88;5119971;28;20058;-78
2023/03/13 08:35:34;;;;;;;0.55;0.52;;;;;;;13.09;77.04;99395.09;5147685;28;20081;-78
2023/03/13 08:38:05;;;;;;;0.30;0.30;;;;;;;13.10;77.19;99391.47;5138306;28;20087;-79
2023/03/13 08:40:36;;;;;;;0.20;0.20;;;;;;;13.16;77.01;99388.50;5139541;28;20081;-79
2023/03/13 08:43:06;;;;;;;0.20;0.20;;;;;;;13.17;77.92;99406.00;5141010;28;20066;-79
2023/03/13 08:45:37;;;;;;;5.82;1.08;;;;;;;13.18;78.23;99405.03;5140643;28;20124;-79
2023/03/13 08:48:07;;;;;;;1.55;0.65;;;;;;;13.14;78.64;99398.28;5132518;28;20110;-80
2023/03/13 08:50:37;;;;;;;0.30;0.30;;;;;;;13.15;79.21;99370.16;5133007;28;20050;-79
2023/03/13 08:53:08;;;;;;;0.50;0.50;;;;;;;13.15;79.75;99380.69;5118770;28;20034;-80
2023/03/13 08:55:38;;;;;;;0.32;0.32;;;;;;;13.17;79.69;99374.41;5154176;28;20106;-80
2023/03/13 08:58:09;;;;;;;0.40;0.40;;;;;;;13.17;79.61;99381.44;5144387;28;20053;-79
2023/03/13 09:00:39;;;;;;;0.35;0.35;;;;;;;13.19;80.08;99367.25;5141656;28;20046;-80
2023/03/13 09:03:10;;;;;;;0.20;0.20;;;;;;;13.23;79.84;99368.78;5152377;28;20038;-79
2023/03/13 09:05:40;;;;;;;0.28;0.28;;;;;;;13.21;80.13;99370.63;5152848;28;20674;-79
2023/03/13 09:08:11;;;;;;;0.82;0.82;;;;;;;13.28;80.49;99360.59;5119385;28;20061;-79
2023/03/13 09:10:41;;;;;;;0.20;0.20;;;;;;;13.30;81.01;99365.75;5139133;28;20081;-79
2023/03/13 09:13:12;;;;;;;0.40;0.40;;;;;;;13.32;80.77;99358.63;5121033;28;20030;-80
2023/03/13 09:15:42;;;;;;;0.20;0.20;;;;;;;13.35;81.15;99353.16;5153913;28;20050;-79
2023/03/13 09:18:13;;;;;;;0.20;0.20;;;;;;;13.36;80.57;99349.56;5138316;28;20035;-80
2023/03/13 09:20:44;;;;;;;0.93;0.93;;;;;;;13.44;80.43;99347.34;5152985;28;20091;-80
2023/03/13 09:23:14;;;;;;;1.27;1.17;;;;;;;13.46;80.33;99361.28;5140434;28;20034;-80
2023/03/13 09:25:45;;;;;;;0.82;0.82;;;;;;;13.53;80.01;99338.06;5134532;28;20039;-80
2023/03/13 09:28:15;;;;;;;0.20;0.20;;;;;;;13.56;79.54;99347.56;5158946;28;20445;-79
2023/03/13 09:30:46;;;;;;;0.20;0.20;;;;;;;13.60;79.77;99349.03;5143103;28;20038;-80
2023/03/13 09:33:18;;;;;;;0.90;0.82;;;;;;;13.59;79.34;99350.00;5149451;28;20027;-82
2023/03/13 09:35:52;;;;;;;0.52;0.52;;;;;;;13.62;79.62;99352.44;5149452;28;20034;-81
2023/03/13 09:38:22;;;;;;;0.20;0.20;;;;;;;13.61;79.77;99337.56;5143793;28;20030;-81
2023/03/13 09:40:54;;;;;;;0.65;0.57;;;;;;;13.60;79.20;99346.41;5162386;28;20089;-80
2023/03/13 09:43:45;;;;;;;0.30;0.30;;;;;;;13.64;79.79;99338.22;5143413;28;20054;-79
2023/03/13 09:46:44;;;;;;;0.52;0.52;;;;;;;13.67;79.50;99326.66;5145774;28;20564;-79
2023/03/13 09:49:42;;;;;;;0.28;0.28;;;;;;;13.80;79.33;99337.28;5149019;28;20049;-79
2023/03/13 09:52:23;;;;;;;1.75;0.68;;;;;;;13.83;79.06;99322.13;5148436;28;20098;-80
2023/03/13 09:55:23;;;;;;;1.40;1.17;;;;;;;13.90;78.80;99319.94;5146919;28;20046;-81
2023/03/13 09:58:21;;;;;;;1.17;1.08;;;;;;;13.99;78.54;99307.97;5149048;28;20037;-80
2023/03/13 10:01:14;;;;;;;0.40;0.40;;;;;;;14.05;77.71;99309.38;5145457;28;20695;-80
2023/03/13 10:04:05;;;;;;;0.20;0.20;;;;;;;14.08;77.45;99307.38;5149959;28;20026;-80
2023/03/13 10:06:42;;;;;;;0.45;0.45;;;;;;;14.16;77.15;99330.59;5146733;28;20056;-81
2023/03/13 10:09:19;;;;;;;0.30;0.30;;;;;;;14.21;77.23;99318.00;5128855;28;20030;-80
2023/03/13 10:12:08;;;;;;;0.40;0.40;;;;;;;14.29;77.29;99305.16;5133306;28;20034;-80
2023/03/13 10:15:20;;;;;;;0.50;0.50;;;;;;;14.38;76.93;99311.59;5152107;28;20058;-80
2023/03/13 10:17:51;;;;;;;0.28;0.28;;;;;;;14.44;76.78;99297.16;5142828;28;20039;-80
2023/03/13 10:20:24;;;;;;;0.20;0.20;;;;;;;14.48;76.01;99290.72;5133869;28;20106;-78
2023/03/13 10:23:01;;;;;;;0.28;0.28;;;;;;;14.48;76.35;99296.84;5155485;28;20568;-79
2023/03/13 10:25:33;;;;;;;0.40;0.40;;;;;;;14.54;76.32;99284.19;5128333;28;20628;-79
2023/03/13 10:28:05;;;;;;;0.80;0.75;;;;;;;14.56;75.25;99274.38;5130490;28;20038;-79
2023/03/13 10:30:39;;;;;;;0.30;0.30;;;;;;;14.55;75.90;99292.00;5146483;28;20034;-80
2023/03/13 10:33:10;;;;;;;0.20;0.20;;;;;;;14.58;75.67;99290.97;5158462;28;20271;-80
2023/03/13 10:35:42;;;;;;;0.20;0.20;;;;;;;14.61;74.23;99285.47;5160907;28;20049;-79
2023/03/13 10:38:17;;;;;;;0.32;0.32;;;;;;;14.68;74.63;99273.56;5152796;28;20049;-80
2023/03/13 10:40:59;;;;;;;0.20;0.20;;;;;;;14.75;74.75;99276.66;5129322;28;20034;-79
2023/03/13 10:43:29;;;;;;;0.20;0.20;;;;;;;14.83;73.42;99265.59;5160685;28;20050;-80
2023/03/13 10:46:02;;;;;;;0.20;0.20;;;;;;;14.86;73.54;99257.44;5126779;28;20081;-80
2023/03/13 10:48:36;;;;;;;0.45;0.45;;;;;;;14.93;73.13;99271.91;5133681;28;20105;-80
2023/03/13 10:51:20;;;;;;;0.32;0.32;;;;;;;14.93;72.34;99271.91;5140259;28;20047;-79
2023/03/13 10:53:50;;;;;;;0.30;0.30;;;;;;;14.95;72.75;99262.97;5146603;28;20049;-80
2023/03/13 10:56:29;;;;;;;0.55;0.55;;;;;;;14.91;73.12;99256.19;5140574;28;20042;-79
2023/03/13 10:59:00;;;;;;;0.30;0.30;;;;;;;14.89;73.17;99251.97;5145843;28;20105;-80
2023/03/13 11:01:44;;;;;;;0.20;0.20;;;;;;;14.89;72.82;99236.13;5145494;28;20750;-80
2023/03/13 11:04:33;;;;;;;0.32;0.32;;;;;;;14.86;72.52;99250.38;5143956;28;20034;-79
2023/03/13 11:07:19;;;;;;;0.50;0.50;;;;;;;14.93;72.82;99262.22;5148100;28;20046;-79
2023/03/13 11:10:15;;;;;;;0.20;0.20;;;;;;;14.99;72.48;99249.53;5168500;28;20122;-79
2023/03/13 11:12:50;;;;;;;0.30;0.30;;;;;;;15.05;72.55;99247.31;5146383;28;20030;-79
2023/03/13 11:15:43;;;;;;;0.20;0.20;;;;;;;15.14;71.40;99232.59;5149361;28;20106;-78
2023/03/13 11:18:21;;;;;;;0.20;0.20;;;;;;;15.19;71.72;99217.28;5154510;28;20065;-79
2023/03/13 11:20:52;;;;;;;0.20;0.20;;;;;;;15.15;71.85;99220.25;5145382;28;20145;-79
2023/03/13 11:23:36;;;;;;;0.40;0.40;;;;;;;15.18;70.75;99209.47;5131068;28;20113;-79
2023/03/13 11:26:15;;;;;;;;;;;;;;;15.06;71.19;99204.09;5131489;28;20473;-78
2023/03/13 11:29:27;;;;;;;0.20;0.20;;;;;;;15.05;72.01;99207.69;5145783;28;19961;-78
2023/03/13 11:32:02;;;;;;;0.50;0.50;;;;;;;15.01;71.23;99194.81;5161627;28;20042;-79
2023/03/13 11:34:59;;;;;;;0.30;0.30;;;;;;;15.11;71.78;99201.13;5130183;28;20046;-78
2023/03/13 11:37:33;;;;;;;0.30;0.30;;;;;;;15.25;72.12;99184.28;5122239;28;20031;-79
2023/03/13 11:40:24;;;;;;;0.30;0.30;;;;;;;15.25;70.57;99184.28;5130843;28;20393;-79
2023/03/13 11:43:16;;;;;;;0.30;0.30;;;;;;;15.33;70.48;99187.22;5151215;28;20407;-79
2023/03/13 11:46:02;;;;;;;1.52;0.85;;;;;;;15.40;68.90;99183.22;5142153;28;20051;-80
2023/03/13 11:48:38;;;;;;;0.20;0.20;;;;;;;15.54;69.40;99162.88;5153109;28;20445;-80
2023/03/13 11:51:35;;;;;;;0.30;0.30;;;;;;;15.55;69.40;99164.56;5142970;28;20051;-80
2023/03/13 11:54:18;;;;;;;0.30;0.30;;;;;;;15.59;68.86;99160.72;5144609;28;20072;-81
2023/03/13 11:56:56;;;;;;;0.30;0.30;;;;;;;15.55;69.58;99154.81;5122025;28;20117;-81
2023/03/13 11:59:48;;;;;;;0.55;0.55;;;;;;;15.52;70.04;99162.97;5141205;28;20138;-81
2023/03/13 12:02:31;;;;;;;0.30;0.30;;;;;;;15.67;69.14;99155.72;5157030;28;20035;-80
2023/03/13 12:05:12;;;;;;;0.77;0.60;;;;;;;15.81;68.80;99143.28;5158586;28;20117;-81